sensor_id;sensor_type;location;lat;lon;timestamp;P1;durP1;ratioP1;P2;durP2;ratioP2
57297;SDS011;43147;50.972;18.210;2022-08-19T00:01:31;12.10;;;9.10;;
57297;SDS011;43147;50.972;18.210;2022-08-19T00:04:01;15.40;;;9.50;;
57297;SDS011;43147;50.972;18.210;2022-08-19T00:06:29;10.40;;;9.30;;
57297;SDS011;43147;50.972;18.210;2022-08-19T00:08:56;11.20;;;9.90;;
57297;SDS011;43147;50.972;18.210;2022-08-19T00:11:23;11.80;;;10.00;;
57297;SDS011;43147;50.972;18.210;2022-08-19T00:13:49;12.90;;;10.00;;
57297;SDS011;43147;50.972;18.210;2022-08-19T00:16:16;9.90;;;9.00;;
57297;SDS011;43147;50.972;18.210;2022-08-19T00:18:44;11.40;;;10.20;;
57297;SDS011;43147;50.972;18.210;2022-08-19T00:21:10;11.30;;;10.30;;
57297;SDS011;43147;50.972;18.210;2022-08-19T00:23:36;11.50;;;10.30;;
57297;SDS011;43147;50.972;18.210;2022-08-19T00:26:05;11.60;;;10.60;;
57297;SDS011;43147;50.972;18.210;2022-08-19T00:28:31;12.10;;;10.90;;
57297;SDS011;43147;50.972;18.210;2022-08-19T00:30:57;12.30;;;11.00;;
57297;SDS011;43147;50.972;18.210;2022-08-19T00:33:24;11.80;;;10.60;;
57297;SDS011;43147;50.972;18.210;2022-08-19T00:35:49;13.60;;;9.90;;
57297;SDS011;43147;50.972;18.210;2022-08-19T00:38:14;14.70;;;11.00;;
57297;SDS011;43147;50.972;18.210;2022-08-19T00:40:42;13.50;;;10.60;;
57297;SDS011;43147;50.972;18.210;2022-08-19T00:43:12;16.30;;;11.30;;
57297;SDS011;43147;50.972;18.210;2022-08-19T00:45:38;17.80;;;11.40;;
57297;SDS011;43147;50.972;18.210;2022-08-19T00:48:09;17.70;;;11.40;;
57297;SDS011;43147;50.972;18.210;2022-08-19T00:50:35;12.60;;;11.30;;
57297;SDS011;43147;50.972;18.210;2022-08-19T00:53:01;15.00;;;11.90;;
57297;SDS011;43147;50.972;18.210;2022-08-19T00:55:28;14.70;;;11.50;;
57297;SDS011;43147;50.972;18.210;2022-08-19T00:57:57;11.90;;;10.70;;
57297;SDS011;43147;50.972;18.210;2022-08-19T01:00:28;13.30;;;11.60;;
57297;SDS011;43147;50.972;18.210;2022-08-19T01:02:54;13.50;;;12.20;;
57297;SDS011;43147;50.972;18.210;2022-08-19T01:05:22;13.50;;;12.10;;
57297;SDS011;43147;50.972;18.210;2022-08-19T01:07:53;13.50;;;12.30;;
57297;SDS011;43147;50.972;18.210;2022-08-19T01:10:21;17.20;;;12.60;;
57297;SDS011;43147;50.972;18.210;2022-08-19T01:12:50;13.80;;;12.40;;
57297;SDS011;43147;50.972;18.210;2022-08-19T01:15:18;15.90;;;12.40;;
57297;SDS011;43147;50.972;18.210;2022-08-19T01:17:46;13.80;;;12.40;;
57297;SDS011;43147;50.972;18.210;2022-08-19T01:20:14;13.50;;;12.00;;
57297;SDS011;43147;50.972;18.210;2022-08-19T01:22:48;14.40;;;12.50;;
57297;SDS011;43147;50.972;18.210;2022-08-19T01:25:17;18.00;;;12.90;;
57297;SDS011;43147;50.972;18.210;2022-08-19T01:27:47;14.40;;;12.40;;
57297;SDS011;43147;50.972;18.210;2022-08-19T01:30:15;14.50;;;12.90;;
57297;SDS011;43147;50.972;18.210;2022-08-19T01:32:46;14.40;;;12.90;;
57297;SDS011;43147;50.972;18.210;2022-08-19T01:35:12;14.10;;;12.70;;
57297;SDS011;43147;50.972;18.210;2022-08-19T01:37:45;14.30;;;12.50;;
57297;SDS011;43147;50.972;18.210;2022-08-19T01:40:15;15.40;;;12.70;;
57297;SDS011;43147;50.972;18.210;2022-08-19T01:42:41;17.70;;;13.00;;
57297;SDS011;43147;50.972;18.210;2022-08-19T01:45:07;15.00;;;13.00;;
57297;SDS011;43147;50.972;18.210;2022-08-19T01:47:35;15.90;;;14.20;;
57297;SDS011;43147;50.972;18.210;2022-08-19T01:50:01;15.40;;;13.70;;
57297;SDS011;43147;50.972;18.210;2022-08-19T01:52:28;17.10;;;13.30;;
57297;SDS011;43147;50.972;18.210;2022-08-19T01:54:53;18.30;;;14.80;;
57297;SDS011;43147;50.972;18.210;2022-08-19T01:57:19;18.20;;;13.10;;
57297;SDS011;43147;50.972;18.210;2022-08-19T01:59:45;15.00;;;13.50;;
57297;SDS011;43147;50.972;18.210;2022-08-19T02:02:10;14.50;;;12.60;;
57297;SDS011;43147;50.972;18.210;2022-08-19T02:04:37;16.10;;;13.40;;
57297;SDS011;43147;50.972;18.210;2022-08-19T02:07:04;18.40;;;13.80;;
57297;SDS011;43147;50.972;18.210;2022-08-19T02:09:31;15.70;;;14.10;;
57297;SDS011;43147;50.972;18.210;2022-08-19T02:11:57;15.00;;;13.30;;
57297;SDS011;43147;50.972;18.210;2022-08-19T02:14:22;16.10;;;13.00;;
57297;SDS011;43147;50.972;18.210;2022-08-19T02:16:48;16.50;;;14.60;;
57297;SDS011;43147;50.972;18.210;2022-08-19T02:19:14;14.70;;;13.40;;
57297;SDS011;43147;50.972;18.210;2022-08-19T02:21:39;15.30;;;13.80;;
57297;SDS011;43147;50.972;18.210;2022-08-19T02:24:05;17.30;;;14.40;;
57297;SDS011;43147;50.972;18.210;2022-08-19T02:26:32;15.20;;;13.60;;
57297;SDS011;43147;50.972;18.210;2022-08-19T02:28:58;18.70;;;14.60;;
57297;SDS011;43147;50.972;18.210;2022-08-19T02:31:25;16.20;;;14.00;;
57297;SDS011;43147;50.972;18.210;2022-08-19T02:33:53;17.60;;;14.90;;
57297;SDS011;43147;50.972;18.210;2022-08-19T02:36:20;18.10;;;15.30;;
57297;SDS011;43147;50.972;18.210;2022-08-19T02:38:46;16.40;;;14.90;;
57297;SDS011;43147;50.972;18.210;2022-08-19T02:41:14;16.30;;;14.80;;
57297;SDS011;43147;50.972;18.210;2022-08-19T02:43:42;16.20;;;14.70;;
57297;SDS011;43147;50.972;18.210;2022-08-19T02:46:11;17.80;;;15.90;;
57297;SDS011;43147;50.972;18.210;2022-08-19T02:48:38;16.70;;;15.00;;
57297;SDS011;43147;50.972;18.210;2022-08-19T02:51:04;16.10;;;14.50;;
57297;SDS011;43147;50.972;18.210;2022-08-19T02:53:30;21.20;;;15.70;;
57297;SDS011;43147;50.972;18.210;2022-08-19T02:55:56;17.30;;;15.50;;
57297;SDS011;43147;50.972;18.210;2022-08-19T02:58:21;22.30;;;16.20;;
57297;SDS011;43147;50.972;18.210;2022-08-19T03:00:49;20.30;;;16.10;;
57297;SDS011;43147;50.972;18.210;2022-08-19T03:03:17;17.90;;;15.90;;
57297;SDS011;43147;50.972;18.210;2022-08-19T03:05:44;23.20;;;17.40;;
57297;SDS011;43147;50.972;18.210;2022-08-19T03:08:11;18.80;;;16.50;;
57297;SDS011;43147;50.972;18.210;2022-08-19T03:10:45;18.10;;;15.70;;
57297;SDS011;43147;50.972;18.210;2022-08-19T03:13:12;18.70;;;16.90;;
57297;SDS011;43147;50.972;18.210;2022-08-19T03:15:44;18.20;;;16.30;;
57297;SDS011;43147;50.972;18.210;2022-08-19T03:18:12;18.60;;;16.60;;
57297;SDS011;43147;50.972;18.210;2022-08-19T03:20:42;18.40;;;16.50;;
57297;SDS011;43147;50.972;18.210;2022-08-19T03:23:09;24.50;;;16.30;;
57297;SDS011;43147;50.972;18.210;2022-08-19T03:25:39;19.10;;;17.20;;
57297;SDS011;43147;50.972;18.210;2022-08-19T03:28:07;17.20;;;15.60;;
57297;SDS011;43147;50.972;18.210;2022-08-19T03:30:32;20.00;;;17.50;;
57297;SDS011;43147;50.972;18.210;2022-08-19T03:32:58;25.70;;;17.00;;
57297;SDS011;43147;50.972;18.210;2022-08-19T03:35:24;22.90;;;16.60;;
57297;SDS011;43147;50.972;18.210;2022-08-19T03:37:49;18.70;;;16.60;;
57297;SDS011;43147;50.972;18.210;2022-08-19T03:40:18;22.60;;;17.70;;
57297;SDS011;43147;50.972;18.210;2022-08-19T03:42:44;20.60;;;17.10;;
57297;SDS011;43147;50.972;18.210;2022-08-19T03:45:11;19.10;;;17.10;;
57297;SDS011;43147;50.972;18.210;2022-08-19T03:47:39;18.40;;;16.50;;
57297;SDS011;43147;50.972;18.210;2022-08-19T03:50:05;19.10;;;17.10;;
57297;SDS011;43147;50.972;18.210;2022-08-19T03:52:30;21.10;;;17.30;;
57297;SDS011;43147;50.972;18.210;2022-08-19T03:54:56;21.00;;;18.60;;
57297;SDS011;43147;50.972;18.210;2022-08-19T03:57:21;23.10;;;17.00;;
57297;SDS011;43147;50.972;18.210;2022-08-19T03:59:47;20.00;;;18.10;;
57297;SDS011;43147;50.972;18.210;2022-08-19T04:02:13;20.00;;;16.50;;
57297;SDS011;43147;50.972;18.210;2022-08-19T04:04:39;20.20;;;18.10;;
57297;SDS011;43147;50.972;18.210;2022-08-19T04:07:06;20.90;;;17.70;;
57297;SDS011;43147;50.972;18.210;2022-08-19T04:09:34;22.50;;;17.80;;
57297;SDS011;43147;50.972;18.210;2022-08-19T04:12:02;19.80;;;17.70;;
57297;SDS011;43147;50.972;18.210;2022-08-19T04:14:30;19.30;;;17.20;;
57297;SDS011;43147;50.972;18.210;2022-08-19T04:17:00;19.80;;;17.70;;
57297;SDS011;43147;50.972;18.210;2022-08-19T04:19:26;21.20;;;17.90;;
57297;SDS011;43147;50.972;18.210;2022-08-19T04:21:54;22.00;;;16.70;;
57297;SDS011;43147;50.972;18.210;2022-08-19T04:24:20;21.70;;;17.80;;
57297;SDS011;43147;50.972;18.210;2022-08-19T04:26:46;20.00;;;17.10;;
57297;SDS011;43147;50.972;18.210;2022-08-19T04:29:17;20.60;;;17.60;;
57297;SDS011;43147;50.972;18.210;2022-08-19T04:31:47;21.00;;;16.60;;
57297;SDS011;43147;50.972;18.210;2022-08-19T04:34:14;21.90;;;17.00;;
57297;SDS011;43147;50.972;18.210;2022-08-19T04:36:41;19.00;;;16.10;;
57297;SDS011;43147;50.972;18.210;2022-08-19T04:39:12;19.20;;;15.70;;
57297;SDS011;43147;50.972;18.210;2022-08-19T04:41:39;20.00;;;16.20;;
57297;SDS011;43147;50.972;18.210;2022-08-19T04:44:24;17.10;;;15.20;;
57297;SDS011;43147;50.972;18.210;2022-08-19T04:46:50;19.10;;;15.50;;
57297;SDS011;43147;50.972;18.210;2022-08-19T04:49:18;20.00;;;15.40;;
57297;SDS011;43147;50.972;18.210;2022-08-19T04:51:47;17.50;;;15.60;;
57297;SDS011;43147;50.972;18.210;2022-08-19T04:54:14;17.30;;;15.40;;
57297;SDS011;43147;50.972;18.210;2022-08-19T04:56:42;19.10;;;15.60;;
57297;SDS011;43147;50.972;18.210;2022-08-19T04:59:09;20.50;;;15.50;;
57297;SDS011;43147;50.972;18.210;2022-08-19T05:01:36;18.60;;;15.30;;
57297;SDS011;43147;50.972;18.210;2022-08-19T05:04:03;20.10;;;15.00;;
57297;SDS011;43147;50.972;18.210;2022-08-19T05:06:30;16.40;;;14.60;;
57297;SDS011;43147;50.972;18.210;2022-08-19T05:08:58;20.40;;;15.20;;
57297;SDS011;43147;50.972;18.210;2022-08-19T05:11:26;18.00;;;13.90;;
57297;SDS011;43147;50.972;18.210;2022-08-19T05:13:54;15.30;;;13.70;;
57297;SDS011;43147;50.972;18.210;2022-08-19T05:16:21;14.30;;;12.90;;
57297;SDS011;43147;50.972;18.210;2022-08-19T05:18:47;15.40;;;13.60;;
57297;SDS011;43147;50.972;18.210;2022-08-19T05:21:32;20.10;;;14.30;;
57297;SDS011;43147;50.972;18.210;2022-08-19T05:24:17;17.50;;;14.30;;
57297;SDS011;43147;50.972;18.210;2022-08-19T05:26:45;15.80;;;13.10;;
57297;SDS011;43147;50.972;18.210;2022-08-19T05:29:12;16.00;;;12.90;;
57297;SDS011;43147;50.972;18.210;2022-08-19T05:31:39;18.20;;;12.70;;
57297;SDS011;43147;50.972;18.210;2022-08-19T05:34:05;15.50;;;12.50;;
57297;SDS011;43147;50.972;18.210;2022-08-19T05:36:41;16.40;;;11.90;;
57297;SDS011;43147;50.972;18.210;2022-08-19T05:39:10;17.00;;;11.90;;
57297;SDS011;43147;50.972;18.210;2022-08-19T05:41:42;14.30;;;11.60;;
57297;SDS011;43147;50.972;18.210;2022-08-19T05:44:08;13.00;;;11.40;;
57297;SDS011;43147;50.972;18.210;2022-08-19T05:46:35;14.60;;;11.00;;
57297;SDS011;43147;50.972;18.210;2022-08-19T05:49:03;19.20;;;11.90;;
57297;SDS011;43147;50.972;18.210;2022-08-19T05:51:31;16.00;;;10.80;;
57297;SDS011;43147;50.972;18.210;2022-08-19T05:53:59;12.30;;;11.00;;
57297;SDS011;43147;50.972;18.210;2022-08-19T05:56:25;12.20;;;10.40;;
57297;SDS011;43147;50.972;18.210;2022-08-19T05:58:51;15.60;;;10.00;;
57297;SDS011;43147;50.972;18.210;2022-08-19T06:01:19;18.60;;;10.00;;
57297;SDS011;43147;50.972;18.210;2022-08-19T06:03:45;11.40;;;10.30;;
57297;SDS011;43147;50.972;18.210;2022-08-19T06:06:11;10.10;;;8.80;;
57297;SDS011;43147;50.972;18.210;2022-08-19T06:08:38;12.50;;;8.90;;
57297;SDS011;43147;50.972;18.210;2022-08-19T06:13:59;10.70;;;8.20;;
57297;SDS011;43147;50.972;18.210;2022-08-19T06:16:26;10.20;;;9.00;;
57297;SDS011;43147;50.972;18.210;2022-08-19T06:18:53;15.10;;;9.40;;
57297;SDS011;43147;50.972;18.210;2022-08-19T06:21:23;10.90;;;8.10;;
57297;SDS011;43147;50.972;18.210;2022-08-19T06:23:52;12.70;;;8.00;;
57297;SDS011;43147;50.972;18.210;2022-08-19T06:26:20;13.50;;;8.00;;
57297;SDS011;43147;50.972;18.210;2022-08-19T06:28:47;15.20;;;8.10;;
57297;SDS011;43147;50.972;18.210;2022-08-19T06:31:18;11.10;;;7.50;;
57297;SDS011;43147;50.972;18.210;2022-08-19T06:33:46;9.10;;;7.80;;
57297;SDS011;43147;50.972;18.210;2022-08-19T06:36:16;15.50;;;7.60;;
57297;SDS011;43147;50.972;18.210;2022-08-19T06:38:55;11.80;;;7.40;;
57297;SDS011;43147;50.972;18.210;2022-08-19T06:41:25;8.80;;;6.60;;
57297;SDS011;43147;50.972;18.210;2022-08-19T06:43:51;9.80;;;6.70;;
57297;SDS011;43147;50.972;18.210;2022-08-19T06:46:19;10.90;;;6.90;;
57297;SDS011;43147;50.972;18.210;2022-08-19T06:48:46;11.50;;;6.50;;
57297;SDS011;43147;50.972;18.210;2022-08-19T06:51:16;6.90;;;6.20;;
57297;SDS011;43147;50.972;18.210;2022-08-19T06:53:48;12.50;;;7.20;;
57297;SDS011;43147;50.972;18.210;2022-08-19T06:56:15;10.10;;;6.50;;
57297;SDS011;43147;50.972;18.210;2022-08-19T06:58:42;7.30;;;6.50;;
57297;SDS011;43147;50.972;18.210;2022-08-19T07:01:08;7.50;;;6.70;;
57297;SDS011;43147;50.972;18.210;2022-08-19T07:03:35;12.00;;;6.20;;
57297;SDS011;43147;50.972;18.210;2022-08-19T07:06:02;9.10;;;6.70;;
57297;SDS011;43147;50.972;18.210;2022-08-19T07:08:29;8.50;;;5.70;;
57297;SDS011;43147;50.972;18.210;2022-08-19T07:10:56;7.60;;;6.50;;
57297;SDS011;43147;50.972;18.210;2022-08-19T07:13:21;8.80;;;6.50;;
57297;SDS011;43147;50.972;18.210;2022-08-19T07:15:47;6.30;;;5.70;;
57297;SDS011;43147;50.972;18.210;2022-08-19T07:18:14;13.20;;;6.50;;
57297;SDS011;43147;50.972;18.210;2022-08-19T07:20:41;9.60;;;6.40;;
57297;SDS011;43147;50.972;18.210;2022-08-19T07:23:08;7.50;;;6.10;;
57297;SDS011;43147;50.972;18.210;2022-08-19T07:25:35;9.00;;;6.30;;
57297;SDS011;43147;50.972;18.210;2022-08-19T07:28:02;11.80;;;6.90;;
57297;SDS011;43147;50.972;18.210;2022-08-19T07:30:28;10.90;;;6.50;;
57297;SDS011;43147;50.972;18.210;2022-08-19T07:32:53;9.70;;;6.40;;
57297;SDS011;43147;50.972;18.210;2022-08-19T07:35:19;9.10;;;6.30;;
57297;SDS011;43147;50.972;18.210;2022-08-19T07:37:45;14.10;;;6.40;;
57297;SDS011;43147;50.972;18.210;2022-08-19T07:40:11;9.00;;;6.60;;
57297;SDS011;43147;50.972;18.210;2022-08-19T07:42:37;12.40;;;6.60;;
57297;SDS011;43147;50.972;18.210;2022-08-19T07:45:03;12.70;;;6.60;;
57297;SDS011;43147;50.972;18.210;2022-08-19T07:47:30;9.80;;;6.40;;
57297;SDS011;43147;50.972;18.210;2022-08-19T07:49:55;7.20;;;5.90;;
57297;SDS011;43147;50.972;18.210;2022-08-19T07:52:21;18.30;;;6.20;;
57297;SDS011;43147;50.972;18.210;2022-08-19T07:54:47;14.50;;;6.60;;
57297;SDS011;43147;50.972;18.210;2022-08-19T07:57:13;9.60;;;5.70;;
57297;SDS011;43147;50.972;18.210;2022-08-19T07:59:38;12.90;;;5.90;;
57297;SDS011;43147;50.972;18.210;2022-08-19T08:02:04;16.60;;;6.80;;
57297;SDS011;43147;50.972;18.210;2022-08-19T08:04:30;16.70;;;6.70;;
57297;SDS011;43147;50.972;18.210;2022-08-19T08:07:15;13.40;;;6.40;;
57297;SDS011;43147;50.972;18.210;2022-08-19T08:10:00;13.80;;;6.30;;
57297;SDS011;43147;50.972;18.210;2022-08-19T08:12:27;14.10;;;6.70;;
57297;SDS011;43147;50.972;18.210;2022-08-19T08:14:58;10.60;;;6.40;;
57297;SDS011;43147;50.972;18.210;2022-08-19T08:17:28;14.10;;;6.70;;
57297;SDS011;43147;50.972;18.210;2022-08-19T08:19:54;16.50;;;6.80;;
57297;SDS011;43147;50.972;18.210;2022-08-19T08:22:21;12.20;;;6.30;;
57297;SDS011;43147;50.972;18.210;2022-08-19T08:25:20;21.80;;;7.60;;
57297;SDS011;43147;50.972;18.210;2022-08-19T08:27:48;14.50;;;6.00;;
57297;SDS011;43147;50.972;18.210;2022-08-19T08:30:23;11.70;;;6.50;;
57297;SDS011;43147;50.972;18.210;2022-08-19T08:32:50;20.40;;;6.60;;
57297;SDS011;43147;50.972;18.210;2022-08-19T08:35:18;15.20;;;6.50;;
57297;SDS011;43147;50.972;18.210;2022-08-19T08:37:48;13.20;;;5.90;;
57297;SDS011;43147;50.972;18.210;2022-08-19T08:43:06;38.60;;;8.70;;
57297;SDS011;43147;50.972;18.210;2022-08-19T08:45:35;8.00;;;5.80;;
57297;SDS011;43147;50.972;18.210;2022-08-19T08:48:07;15.00;;;6.00;;
57297;SDS011;43147;50.972;18.210;2022-08-19T08:50:42;10.10;;;6.00;;
57297;SDS011;43147;50.972;18.210;2022-08-19T08:53:08;17.70;;;6.60;;
57297;SDS011;43147;50.972;18.210;2022-08-19T08:55:35;15.80;;;6.70;;
57297;SDS011;43147;50.972;18.210;2022-08-19T08:58:05;12.80;;;6.00;;
57297;SDS011;43147;50.972;18.210;2022-08-19T09:03:06;14.40;;;5.30;;
57297;SDS011;43147;50.972;18.210;2022-08-19T09:05:56;15.40;;;4.70;;
57297;SDS011;43147;50.972;18.210;2022-08-19T09:08:48;14.60;;;4.60;;
57297;SDS011;43147;50.972;18.210;2022-08-19T09:11:44;10.30;;;4.40;;
57297;SDS011;43147;50.972;18.210;2022-08-19T09:17:08;8.60;;;4.10;;
57297;SDS011;43147;50.972;18.210;2022-08-19T09:22:26;18.00;;;5.30;;
57297;SDS011;43147;50.972;18.210;2022-08-19T09:24:55;12.40;;;4.80;;
57297;SDS011;43147;50.972;18.210;2022-08-19T09:27:22;32.50;;;5.50;;
57297;SDS011;43147;50.972;18.210;2022-08-19T09:29:49;16.70;;;6.20;;
57297;SDS011;43147;50.972;18.210;2022-08-19T09:32:15;17.00;;;5.50;;
57297;SDS011;43147;50.972;18.210;2022-08-19T09:34:42;30.20;;;6.50;;
57297;SDS011;43147;50.972;18.210;2022-08-19T09:37:08;12.60;;;5.60;;
57297;SDS011;43147;50.972;18.210;2022-08-19T09:39:34;11.70;;;5.40;;
57297;SDS011;43147;50.972;18.210;2022-08-19T09:41:59;9.30;;;5.10;;
57297;SDS011;43147;50.972;18.210;2022-08-19T09:44:25;13.30;;;5.70;;
57297;SDS011;43147;50.972;18.210;2022-08-19T09:46:51;11.30;;;5.80;;
57297;SDS011;43147;50.972;18.210;2022-08-19T09:49:17;19.50;;;5.60;;
57297;SDS011;43147;50.972;18.210;2022-08-19T09:51:43;20.00;;;6.20;;
57297;SDS011;43147;50.972;18.210;2022-08-19T09:54:08;19.80;;;5.90;;
57297;SDS011;43147;50.972;18.210;2022-08-19T09:56:34;9.70;;;5.50;;
57297;SDS011;43147;50.972;18.210;2022-08-19T09:59:00;17.00;;;6.20;;
57297;SDS011;43147;50.972;18.210;2022-08-19T10:01:28;15.30;;;5.80;;
57297;SDS011;43147;50.972;18.210;2022-08-19T10:03:55;18.20;;;5.80;;
57297;SDS011;43147;50.972;18.210;2022-08-19T10:06:23;11.20;;;5.50;;
57297;SDS011;43147;50.972;18.210;2022-08-19T10:08:51;13.90;;;5.20;;
57297;SDS011;43147;50.972;18.210;2022-08-19T10:11:18;12.90;;;5.40;;
57297;SDS011;43147;50.972;18.210;2022-08-19T10:13:45;10.70;;;5.70;;
57297;SDS011;43147;50.972;18.210;2022-08-19T10:16:16;14.60;;;5.40;;
57297;SDS011;43147;50.972;18.210;2022-08-19T10:18:45;17.70;;;5.10;;
57297;SDS011;43147;50.972;18.210;2022-08-19T10:21:12;19.10;;;4.90;;
57297;SDS011;43147;50.972;18.210;2022-08-19T10:23:42;12.00;;;5.10;;
57297;SDS011;43147;50.972;18.210;2022-08-19T10:26:14;11.10;;;5.00;;
57297;SDS011;43147;50.972;18.210;2022-08-19T10:28:40;13.60;;;5.10;;
57297;SDS011;43147;50.972;18.210;2022-08-19T10:31:07;13.80;;;5.10;;
57297;SDS011;43147;50.972;18.210;2022-08-19T10:33:34;13.40;;;5.30;;
57297;SDS011;43147;50.972;18.210;2022-08-19T10:36:11;13.70;;;4.80;;
57297;SDS011;43147;50.972;18.210;2022-08-19T10:38:43;15.50;;;5.20;;
57297;SDS011;43147;50.972;18.210;2022-08-19T10:43:37;16.30;;;5.40;;
57297;SDS011;43147;50.972;18.210;2022-08-19T10:46:04;16.50;;;5.40;;
57297;SDS011;43147;50.972;18.210;2022-08-19T10:48:31;11.60;;;5.20;;
57297;SDS011;43147;50.972;18.210;2022-08-19T10:50:58;11.80;;;5.20;;
57297;SDS011;43147;50.972;18.210;2022-08-19T10:53:42;15.30;;;5.40;;
57297;SDS011;43147;50.972;18.210;2022-08-19T10:56:08;13.90;;;5.10;;
57297;SDS011;43147;50.972;18.210;2022-08-19T10:58:53;13.30;;;5.60;;
57297;SDS011;43147;50.972;18.210;2022-08-19T11:01:19;8.90;;;5.60;;
57297;SDS011;43147;50.972;18.210;2022-08-19T11:03:45;11.40;;;5.80;;
57297;SDS011;43147;50.972;18.210;2022-08-19T11:06:11;14.30;;;5.30;;
57297;SDS011;43147;50.972;18.210;2022-08-19T11:08:38;13.20;;;5.40;;
57297;SDS011;43147;50.972;18.210;2022-08-19T11:11:04;14.10;;;5.70;;
57297;SDS011;43147;50.972;18.210;2022-08-19T11:13:32;12.10;;;5.90;;
57297;SDS011;43147;50.972;18.210;2022-08-19T11:16:01;14.70;;;5.70;;
57297;SDS011;43147;50.972;18.210;2022-08-19T11:18:32;11.90;;;5.50;;
57297;SDS011;43147;50.972;18.210;2022-08-19T11:23:59;20.00;;;5.60;;
57297;SDS011;43147;50.972;18.210;2022-08-19T11:26:27;12.10;;;5.60;;
57297;SDS011;43147;50.972;18.210;2022-08-19T11:28:54;19.00;;;6.10;;
57297;SDS011;43147;50.972;18.210;2022-08-19T11:31:21;21.30;;;6.10;;
57297;SDS011;43147;50.972;18.210;2022-08-19T11:33:50;14.80;;;6.20;;
57297;SDS011;43147;50.972;18.210;2022-08-19T11:36:16;9.30;;;5.70;;
57297;SDS011;43147;50.972;18.210;2022-08-19T11:38:43;15.30;;;5.80;;
57297;SDS011;43147;50.972;18.210;2022-08-19T11:41:10;21.00;;;6.20;;
57297;SDS011;43147;50.972;18.210;2022-08-19T11:43:36;15.90;;;6.30;;
57297;SDS011;43147;50.972;18.210;2022-08-19T11:46:06;21.80;;;6.50;;
57297;SDS011;43147;50.972;18.210;2022-08-19T11:48:32;22.30;;;6.80;;
57297;SDS011;43147;50.972;18.210;2022-08-19T11:50:58;20.70;;;6.40;;
57297;SDS011;43147;50.972;18.210;2022-08-19T11:53:24;17.30;;;5.70;;
57297;SDS011;43147;50.972;18.210;2022-08-19T11:55:50;14.60;;;6.40;;
57297;SDS011;43147;50.972;18.210;2022-08-19T11:58:21;17.80;;;6.90;;
57297;SDS011;43147;50.972;18.210;2022-08-19T12:00:49;17.20;;;6.30;;
57297;SDS011;43147;50.972;18.210;2022-08-19T12:03:15;17.60;;;6.70;;
57297;SDS011;43147;50.972;18.210;2022-08-19T12:05:40;16.30;;;7.10;;
57297;SDS011;43147;50.972;18.210;2022-08-19T12:08:07;12.80;;;7.10;;
57297;SDS011;43147;50.972;18.210;2022-08-19T12:10:33;16.70;;;7.50;;
57297;SDS011;43147;50.972;18.210;2022-08-19T12:13:00;19.00;;;7.10;;
57297;SDS011;43147;50.972;18.210;2022-08-19T12:15:26;18.70;;;7.50;;
57297;SDS011;43147;50.972;18.210;2022-08-19T12:17:57;11.10;;;6.90;;
57297;SDS011;43147;50.972;18.210;2022-08-19T12:20:23;17.40;;;7.10;;
57297;SDS011;43147;50.972;18.210;2022-08-19T12:22:49;12.30;;;6.90;;
57297;SDS011;43147;50.972;18.210;2022-08-19T12:25:16;15.50;;;6.80;;
57297;SDS011;43147;50.972;18.210;2022-08-19T12:27:41;16.10;;;7.20;;
57297;SDS011;43147;50.972;18.210;2022-08-19T12:30:09;14.80;;;6.90;;
57297;SDS011;43147;50.972;18.210;2022-08-19T12:32:37;11.10;;;6.50;;
57297;SDS011;43147;50.972;18.210;2022-08-19T12:35:03;14.70;;;6.40;;
57297;SDS011;43147;50.972;18.210;2022-08-19T12:37:29;18.20;;;6.40;;
57297;SDS011;43147;50.972;18.210;2022-08-19T12:39:57;14.80;;;6.90;;
57297;SDS011;43147;50.972;18.210;2022-08-19T12:42:23;11.70;;;6.40;;
57297;SDS011;43147;50.972;18.210;2022-08-19T12:44:48;12.60;;;5.40;;
57297;SDS011;43147;50.972;18.210;2022-08-19T12:47:14;10.70;;;6.00;;
57297;SDS011;43147;50.972;18.210;2022-08-19T12:49:40;13.10;;;6.80;;
57297;SDS011;43147;50.972;18.210;2022-08-19T12:52:06;11.70;;;6.50;;
57297;SDS011;43147;50.972;18.210;2022-08-19T12:54:34;12.70;;;6.40;;
57297;SDS011;43147;50.972;18.210;2022-08-19T12:57:00;12.20;;;6.00;;
57297;SDS011;43147;50.972;18.210;2022-08-19T12:59:30;14.20;;;6.50;;
57297;SDS011;43147;50.972;18.210;2022-08-19T13:01:56;8.90;;;6.10;;
57297;SDS011;43147;50.972;18.210;2022-08-19T13:04:22;11.20;;;6.10;;
57297;SDS011;43147;50.972;18.210;2022-08-19T13:06:48;15.60;;;6.10;;
57297;SDS011;43147;50.972;18.210;2022-08-19T13:09:13;11.30;;;6.60;;
57297;SDS011;43147;50.972;18.210;2022-08-19T13:11:39;8.90;;;6.10;;
57297;SDS011;43147;50.972;18.210;2022-08-19T13:14:04;8.50;;;6.40;;
57297;SDS011;43147;50.972;18.210;2022-08-19T13:16:30;16.20;;;7.10;;
57297;SDS011;43147;50.972;18.210;2022-08-19T13:18:56;16.10;;;6.90;;
57297;SDS011;43147;50.972;18.210;2022-08-19T13:21:23;10.80;;;7.00;;
57297;SDS011;43147;50.972;18.210;2022-08-19T13:23:51;10.10;;;6.00;;
57297;SDS011;43147;50.972;18.210;2022-08-19T13:26:17;11.50;;;6.10;;
57297;SDS011;43147;50.972;18.210;2022-08-19T13:28:43;13.80;;;6.80;;
57297;SDS011;43147;50.972;18.210;2022-08-19T13:31:30;9.60;;;6.90;;
57297;SDS011;43147;50.972;18.210;2022-08-19T13:34:26;14.10;;;7.20;;
57297;SDS011;43147;50.972;18.210;2022-08-19T13:36:56;11.80;;;6.50;;
57297;SDS011;43147;50.972;18.210;2022-08-19T13:39:22;17.70;;;6.60;;
57297;SDS011;43147;50.972;18.210;2022-08-19T13:41:49;8.60;;;6.10;;
57297;SDS011;43147;50.972;18.210;2022-08-19T13:44:15;11.90;;;6.50;;
57297;SDS011;43147;50.972;18.210;2022-08-19T13:46:43;10.20;;;5.60;;
57297;SDS011;43147;50.972;18.210;2022-08-19T13:49:13;15.60;;;6.00;;
57297;SDS011;43147;50.972;18.210;2022-08-19T13:51:40;19.10;;;9.30;;
57297;SDS011;43147;50.972;18.210;2022-08-19T13:54:07;11.00;;;6.40;;
57297;SDS011;43147;50.972;18.210;2022-08-19T13:56:34;20.50;;;6.80;;
57297;SDS011;43147;50.972;18.210;2022-08-19T13:59:04;17.10;;;6.20;;
57297;SDS011;43147;50.972;18.210;2022-08-19T14:01:30;17.20;;;6.80;;
57297;SDS011;43147;50.972;18.210;2022-08-19T14:03:56;15.80;;;6.50;;
57297;SDS011;43147;50.972;18.210;2022-08-19T14:06:22;10.70;;;6.40;;
57297;SDS011;43147;50.972;18.210;2022-08-19T14:08:47;12.20;;;6.50;;
57297;SDS011;43147;50.972;18.210;2022-08-19T14:11:13;19.50;;;5.80;;
57297;SDS011;43147;50.972;18.210;2022-08-19T14:13:39;14.30;;;5.40;;
57297;SDS011;43147;50.972;18.210;2022-08-19T14:16:12;10.70;;;6.40;;
57297;SDS011;43147;50.972;18.210;2022-08-19T14:18:39;11.70;;;5.40;;
57297;SDS011;43147;50.972;18.210;2022-08-19T14:21:05;11.30;;;5.30;;
57297;SDS011;43147;50.972;18.210;2022-08-19T14:23:32;10.60;;;7.70;;
57297;SDS011;43147;50.972;18.210;2022-08-19T14:26:09;13.80;;;7.40;;
57297;SDS011;43147;50.972;18.210;2022-08-19T14:28:37;11.40;;;6.80;;
57297;SDS011;43147;50.972;18.210;2022-08-19T14:31:07;12.50;;;7.30;;
57297;SDS011;43147;50.972;18.210;2022-08-19T14:33:44;14.00;;;7.60;;
57297;SDS011;43147;50.972;18.210;2022-08-19T14:36:11;15.50;;;7.40;;
57297;SDS011;43147;50.972;18.210;2022-08-19T14:38:37;15.20;;;7.40;;
57297;SDS011;43147;50.972;18.210;2022-08-19T14:41:21;15.00;;;7.20;;
57297;SDS011;43147;50.972;18.210;2022-08-19T14:43:49;10.10;;;6.50;;